Flight Track Log - Related Links

Times and Time Zones

All times are in EDT time to prevent confusion due to time zone crossing. See the SKW5378 flight status page for this flight to view local times or setup timezone preferences in your user account.

Time Position Orientation Groundspeed Altitude Reporting Facility
EDT Latitude Longitude Course Direction KTS MPH feet Rate Location/Type
Mon 10:22:02 PM 41.9333 -87.8500 185° South 214 246 3,900  Level Chicago TRACON
Mon 10:24:00 PM 41.5102 -87.9953 189° South  Level Estimated
Mon 10:24:05 PM 41.8144 -87.9039 199° South 251 289 8,300  Level Chicago Center
Mon 10:25:00 PM 41.3923 -88.0172 197° South  Level Estimated
Mon 10:25:06 PM 41.7389 -87.9292 194° South 277 319 10,500  Level Chicago Center
Mon 10:26:00 PM 41.2744 -88.0391 189° South  Level Estimated
Mon 10:26:07 PM 41.6578 -87.9533 193° South 295 339 12,700  Level Chicago Center
Mon 10:27:00 PM 41.1625 -88.0912 185° South  Level FlightAware Approximate
Mon 10:27:09 PM 41.5675 -87.9806 193° South 338 389 13,500  Level Chicago Center
Mon 10:28:10 PM 41.4594 -88.0136 193° South 389 448 14,300 1,081 Climbing Chicago Center
Mon 10:30:01 PM 41.2403 -88.0850 194° South 411 473 16,600 1,291 Climbing Kansas City Center
Mon 10:31:02 PM 41.1219 -88.0989 185° South 419 482 18,000 1,377 Climbing Kansas City Center
Mon 10:32:03 PM 41.0036 -88.1167 186° South 425 489 19,400 1,279 Climbing Kansas City Center
Mon 10:33:04 PM 40.8875 -88.1372 188° South 421 484 20,600 1,131 Climbing Kansas City Center
Mon 10:34:05 PM 40.7717 -88.1592 188° South 420 483 21,700 1,082 Climbing Kansas City Center
Mon 10:35:06 PM 40.6553 -88.1808 188° South 420 483 22,800 1,131 Climbing Kansas City Center
Mon 10:36:07 PM 40.5378 -88.2006 187° South 423 487 24,000 1,230 Climbing Kansas City Center
Mon 10:37:08 PM 40.3944 -88.2239 187° South 429 494 25,300 984 Climbing Kansas City Center
Mon 10:38:09 PM 40.2747 -88.2447 188° South 432 497 26,000 344 Climbing Kansas City Center
Mon 10:39:10 PM 40.1506 -88.2653 187° South 441 507 26,000  Level Kansas City Center
Mon 10:40:25 PM 39.9928 -88.2925 188° South 465 535 26,000  Level Chicago Center
Mon 10:41:26 PM 39.8594 -88.3167 188° South 478 550 26,000  Level Chicago Center
Mon 10:42:13 PM 39.7578 -88.3306 186° South 470 541 26,000  Level Kansas City Center
Mon 10:43:14 PM 39.6292 -88.3522 187° South 471 542 26,000  Level Kansas City Center
Mon 10:44:15 PM 39.4956 -88.3758 188° South 476 548 26,000  Level Kansas City Center
Mon 10:45:16 PM 39.3642 -88.4003 188° South 477 549 26,000  Level Kansas City Center
Mon 10:47:18 PM 39.1011 -88.4447 187° South 475 547 26,000  Level Kansas City Center
Mon 10:48:19 PM 38.9686 -88.4661 187° South 477 549 26,000  Level Kansas City Center
Mon 10:50:21 PM 38.6792 -88.5142 187° South 477 549 26,000  Level Kansas City Center
Mon 10:51:22 PM 38.5461 -88.5356 187° South 479 551 26,000  Level Kansas City Center
Mon 10:52:23 PM 38.4122 -88.5575 187° South 482 555 26,000 -443 Level Kansas City Center
Mon 10:53:24 PM 38.2781 -88.5794 187° South 484 557 25,100 -2,066 Descending Kansas City Center
Mon 10:54:25 PM 38.1503 -88.6011 188° South 474 545 21,800 -3,180 Descending Kansas City Center
Mon 10:56:27 PM 37.9086 -88.6289 185° South 444 511 15,400 -3,165 Descending Kansas City Center
Mon 10:57:27 PM 37.7922 -88.6089 172° South 422 486 12,200 -2,678 Descending Kansas City Center
Mon 10:58:28 PM 37.6850 -88.6022 177° South 397 457 10,000 -1,307 Descending Kansas City Center
Mon 10:59:08 PM 37.6156 -88.6264 195° South 388 447 10,000  Level Memphis Center
Mon 11:00:08 PM 37.5200 -88.6417 187° South 375 432 10,000 -950 Level Memphis Center
Mon 11:01:08 PM 37.4411 -88.6564 188° South 330 380 8,100 -2,100 Descending Memphis Center
Mon 11:02:08 PM 37.3703 -88.6683 188° South 286 329 5,800 -2,250 Descending Memphis Center
Mon 11:03:08 PM 37.2956 -88.6725 183° South 273 314 3,600 -2,200 Descending Memphis Center

Login

Don't have an account? Register now (free) for customized features, flight alerts, and more!